Auburn Township, OH

1:37 AM EST on February 11, 2016 (GMT -0500)
Lake Lucerne | | Change Station
CLOSE
Current Station
Personal Weather Station
Location: Chagrin Falls, OH
Elevation: 1148 ft
Nearby Weather Stations
Active Advisory: Lake Effect Snow Warning Active Notice: Local Storm Report

Elev 1148 ft 41.40 °N, 81.34 °W | Updated 12 seconds ago

Snow
Snow
14.2 °F
Feels Like 14 °F
N
0.0
Wind Variable Wind from NE
Gusts 0.0 mph

Today
High -- | Low -- °F
--% Chance of Precip.
Yesterday
High -- | Low -- °F
Precip. -- in
Pressure 29.93 in
Visibility 3.0 miles
Clouds Scattered Clouds 1500 ft
Overcast 2000 ft
Windchill 14 °F
Dew Point 3 °F
Humidity 61%
Rainfall 0.00 in
Snow Depth Not available.
7:26 AM 5:53 PM
Waxing Crescent, 10% visible
METAR KPOV 110619Z AUTO 29011G20KT 3SM -SN SCT015 OVC020 M10/M13 A2993 RMK AO2 T10961130
Pressure 29.93 in
Visibility 3.0 miles
Clouds Scattered Clouds 1500 ft
Overcast 2000 ft
Windchill 14 °F
Dew Point 3 °F
Humidity 61%
Rainfall 0.00 in
Snow Depth Not available.
7:26 AM 5:53 PM
Waxing Crescent, 10% visible
METAR KPOV 110619Z AUTO 29011G20KT 3SM -SN SCT015 OVC020 M10/M13 A2993 RMK AO2 T10961130

10-Day Weather Forecast

Almanac

Astronomy

Feb. 11, 2016 Rise Set
Actual Time
Civil Twilight
Nautical Twilight
Astronomical Twilight
Moon
Length of Visible Light
Length of Day
Tomorrow will be .
, % of the Moon is Illuminated

Today's Extremes

State Highs State Lows

Community

WunderPhotos

Upload Photos

1,892,028 photos uploaded!

WunderBlog® & News

Nearby

Air Quality

  Air Quality AQ Index Pollutant
Not available.

Snow Depth

Station Depth Elevation

Earthquake Activity

City Distance Mag. Time & Date
Minimum magnitude displayed is 2.5.

Coastal Water Temperatures

Place Temperature

Stations

Nearby Weather Stations

Station Location Temp. Windchill Dew Point Humidity Wind Precip. Elev Updated Type
                   

Watches & Warnings

Lake Effect Snow Warning
Issued: 9:10 PM EST Feb. 10, 2016 – National Weather Service

... Lake effect snow warning remains in effect until 4 PM EST
Thursday...

* accumulations... 10 to 14 inches of snow.

* Timing... snow showers will continue into Thursday. The snow
showers are expected to diminish in coverage and intensity
Thursday afternoon.

* Impacts... snow covered roads and reduced visibility during
heavier snow showers and squalls.

* Winds... northwest 5 to 15 mph with gusts up to 25 mph.

* Temperatures... 8 to 18 degrees.

Precautionary/preparedness actions...

In lake effect snow the weather can vary from locally heavy snow
in narrow bands to dry weather just a few miles away. If you will
be traveling across the region be prepared for rapid changes in
Road and visibility conditions. Stay tuned to NOAA Weather Radio
for further details or updates.